Biggs Army Air Field (Fort Bliss)
KBIF : now visible

Airfield :











YOU CAN JOIN US ON...

 
LOGIN :

Register | Disclaimer

   EN    FR    IT 

 









Legend :    VFR   Marginal VFR   IFR   Intensive IFR   Very Intensive IFR
Visi :
Ceiling :
>= 8 km
>= 3000ft
5 to 8 km
1000 to 3000 ft
1500m to 5 km
500 to 1000 ft
800 to 1500m
200 to 500 ft
< 800m
< 200 ft
Symbols :   Thunderstorms  Fog  Heavy snow  Heavy precipitations  Wind > 20 kt






- Airport Elevation : 3946 ft


KBIF - Biggs Army Air Field (Fort Bliss)

CURRENT METAR :
  • 241058Z AUTO 00000KT 10SM CLR 11/00 A3012 RMK AO2 SLP152 T01100002 $

EXPIRED METARs :
  • 240958Z AUTO 00000KT 10SM CLR 11/00 A3012 RMK AO2 SLP150 T01111001 $
  • 240858Z AUTO 00000KT 10SM CLR 12/00 A3013 RMK AO2 SLP151 T01161002 57008 $

TAF TAF KBIF
Valid from the 24 at 06:00 until the 25 at 12:00 UTC


240603Z 2406/2512 VRB06KT 9999 SKC 510023 QNH3007INS
BECMG 2420/2421 26010G20KT 9999 SKC 510013 QNH2993INS
BECMG 2501/2502 VRB06KT 9999 SKC QNH2993INS TX27/2422Z TN08/2413Z
KZAB FIR / North America



MET'MAP, your aeronautical weather chart ! - Copyright ORBIFLY December 2007 - Disclaimer

ORBIFLY MET'MAP TEAM :

Programming & Development : Alexandra Zaïnal
Concept & original design : Baudouin d'Aumeries
Assistance for programming : Marc-Olivier Méhu
Technical & hardware support : Manuel Goepfert

Contact : metmap@orbifly.com




SOURCES & CREDITS :

   NOAA       Earth
Advisory